Time;durP1;ratioP1;P1;durP2;ratioP2;P2;SDS_P1;SDS_P2;PMS_P1;PMS_P2;Temp;Humidity;BMP_temperature;BMP_pressure;BME280_temperature;BME280_humidity;BME280_pressure;Samples;Min_cycle;Max_cycle;Signal;HPM_P1;HPM_P2
2022/11/22 00:02:12;;;;;;;20.10;17.23;;;;;;;4.32;100.00;94242.41;5085848;28;20047;-67
2022/11/22 00:04:38;;;;;;;17.30;15.63;;;;;;;4.34;100.00;94245.69;5085928;28;20069;-59
2022/11/22 00:07:03;;;;;;;15.32;13.73;;;;;;;4.28;100.00;94252.28;5085501;28;20024;-59
2022/11/22 00:09:28;;;;;;;19.35;17.48;;;;;;;4.26;100.00;94249.00;5081603;28;20056;-60
2022/11/22 00:11:54;;;;;;;27.73;24.75;;;;;;;4.25;100.00;94249.94;5086144;28;20032;-60
2022/11/22 00:14:19;;;;;;;28.48;25.63;;;;;;;4.25;100.00;94255.16;5087166;28;20020;-59
2022/11/22 00:16:44;;;;;;;20.75;18.58;;;;;;;4.24;100.00;94263.13;5081089;28;20031;-59
2022/11/22 00:19:10;;;;;;;19.73;17.83;;;;;;;4.23;100.00;94257.09;5081191;28;20024;-59
2022/11/22 00:21:35;;;;;;;17.83;16.10;;;;;;;4.21;100.00;94269.44;5081428;28;20044;-66
2022/11/22 00:24:00;;;;;;;17.42;15.73;;;;;;;4.27;100.00;94273.28;5082190;28;20028;-62
2022/11/22 00:26:26;;;;;;;17.63;15.82;;;;;;;4.25;100.00;94267.38;5080374;28;20032;-62
2022/11/22 00:28:51;;;;;;;16.77;15.07;;;;;;;4.23;100.00;94274.53;5088601;28;20488;-63
2022/11/22 00:31:16;;;;;;;23.40;20.88;;;;;;;4.23;100.00;94270.13;5087761;28;20542;-63
2022/11/22 00:33:42;;;;;;;14.88;13.48;;;;;;;4.28;100.00;94270.50;5087438;28;20036;-63
2022/11/22 00:36:07;;;;;;;20.38;18.27;;;;;;;4.28;100.00;94278.34;5081884;28;20459;-62
2022/11/22 00:38:33;;;;;;;18.42;14.93;;;;;;;4.45;100.00;94270.78;5081156;28;20016;-58
2022/11/22 00:40:58;;;;;;;15.75;13.98;;;;;;;4.34;100.00;94283.97;5079728;28;20043;-66
2022/11/22 00:43:23;;;;;;;18.00;16.30;;;;;;;4.32;100.00;94275.47;5086140;28;20020;-63
2022/11/22 00:45:49;;;;;;;17.88;16.02;;;;;;;4.33;100.00;94279.72;5079192;28;20489;-63
2022/11/22 00:48:14;;;;;;;23.13;20.77;;;;;;;4.30;100.00;94278.22;5080987;28;20068;-63
2022/11/22 00:50:39;;;;;;;25.40;22.90;;;;;;;4.29;100.00;94274.75;5079539;28;20032;-62
2022/11/22 00:53:05;;;;;;;18.20;16.30;;;;;;;4.34;100.00;94273.56;5085829;28;20038;-62
2022/11/22 00:55:30;;;;;;;17.48;15.68;;;;;;;4.28;100.00;94278.34;5083464;28;20112;-63
2022/11/22 00:57:55;;;;;;;15.90;14.18;;;;;;;4.24;100.00;94276.97;5075778;28;20021;-63
2022/11/22 01:00:21;;;;;;;4.05;3.75;;;;;;;4.28;100.00;94287.94;5079234;28;20481;-69
2022/11/22 01:02:46;;;;;;;4.20;3.28;;;;;;;4.16;100.00;94297.69;5083408;28;20031;-62
2022/11/22 01:05:12;;;;;;;2.70;2.50;;;;;;;4.05;100.00;94298.63;5082003;28;20028;-61
2022/11/22 01:07:37;;;;;;;4.72;4.40;;;;;;;4.03;100.00;94305.78;5081629;28;20016;-61
2022/11/22 01:10:03;;;;;;;3.22;3.03;;;;;;;4.04;100.00;94320.44;5081451;28;20138;-61
2022/11/22 01:12:28;;;;;;;2.05;1.95;;;;;;;4.00;100.00;94322.47;5086344;28;20508;-61
2022/11/22 01:14:54;;;;;;;1.98;1.95;;;;;;;3.96;100.00;94325.47;5086268;28;20024;-61
2022/11/22 01:17:19;;;;;;;3.80;2.58;;;;;;;3.94;100.00;94333.44;5086578;28;20052;-59
2022/11/22 01:19:45;;;;;;;3.28;2.65;;;;;;;3.94;100.00;94335.22;5080047;28;20063;-69
2022/11/22 01:22:10;;;;;;;4.10;3.05;;;;;;;3.95;100.00;94329.88;5084910;28;20035;-59
2022/11/22 01:24:35;;;;;;;3.10;2.90;;;;;;;4.02;100.00;94322.34;5078659;28;20024;-59
2022/11/22 01:27:01;;;;;;;2.28;2.17;;;;;;;3.96;100.00;94326.31;5077632;28;20056;-60
2022/11/22 01:29:26;;;;;;;1.65;1.55;;;;;;;3.92;100.00;94318.91;5081835;28;20024;-59
2022/11/22 01:31:51;;;;;;;1.67;1.58;;;;;;;3.86;100.00;94312.44;5086774;28;20084;-60
2022/11/22 01:34:17;;;;;;;2.08;1.90;;;;;;;3.83;100.00;94313.56;5079266;28;20024;-59
2022/11/22 01:36:42;;;;;;;2.13;2.03;;;;;;;3.79;100.00;94314.78;5081818;28;20036;-58
2022/11/22 01:39:07;;;;;;;2.20;2.00;;;;;;;3.75;100.00;94313.38;5081784;28;20027;-60
2022/11/22 01:41:33;;;;;;;2.05;1.90;;;;;;;3.77;100.00;94316.69;5086508;28;20501;-69
2022/11/22 01:44:20;;;;;;;2.42;2.00;;;;;;;3.77;100.00;94323.69;5078337;28;20127;-68
2022/11/22 01:46:50;;;;;;;2.10;2.00;;;;;;;3.73;100.00;94321.34;5086159;28;20027;-68
2022/11/22 01:49:22;;;;;;;2.45;2.35;;;;;;;3.65;100.00;94315.16;5084590;28;20653;-68
2022/11/22 01:51:51;;;;;;;2.92;2.83;;;;;;;3.64;100.00;94316.91;5084955;28;20081;-68
2022/11/22 01:54:21;;;;;;;3.85;3.65;;;;;;;3.65;100.00;94308.19;5078729;28;20619;-68
2022/11/22 01:56:51;;;;;;;7.15;6.75;;;;;;;3.64;100.00;94305.69;5086090;28;20115;-61
2022/11/22 01:59:21;;;;;;;8.50;7.35;;;;;;;3.61;100.00;94298.97;5075785;28;20020;-59
2022/11/22 02:01:47;;;;;;;5.60;5.10;;;;;;;3.61;100.00;94298.97;5086967;28;20024;-60
2022/11/22 02:04:16;;;;;;;5.43;5.00;;;;;;;3.61;100.00;94298.16;5090178;28;20016;-59
2022/11/22 02:06:57;;;;;;;7.15;6.75;;;;;;;3.57;100.00;94303.63;5085190;28;20232;-59
2022/11/22 02:09:22;;;;;;;5.35;4.95;;;;;;;3.60;100.00;94304.31;5082589;28;20030;-59
2022/11/22 02:11:51;;;;;;;6.50;6.10;;;;;;;3.57;100.00;94297.59;5092600;28;20027;-59
2022/11/22 02:14:20;;;;;;;3.63;3.33;;;;;;;3.56;100.00;94303.75;5080489;28;20027;-59
2022/11/22 02:16:47;;;;;;;2.28;2.17;;;;;;;3.53;100.00;94310.03;5086618;28;20027;-68
2022/11/22 02:19:17;;;;;;;2.25;1.42;;;;;;;3.50;100.00;94317.31;5082476;28;20389;-68
2022/11/22 02:21:47;;;;;;;2.10;2.00;;;;;;;3.50;100.00;94320.72;5089544;28;20469;-67
2022/11/22 02:24:22;;;;;;;3.22;3.13;;;;;;;3.50;100.00;94318.13;5082457;28;20477;-68
2022/11/22 02:26:47;;;;;;;4.53;4.30;;;;;;;3.49;100.00;94321.69;5074214;28;20030;-68
2022/11/22 02:29:13;;;;;;;6.38;5.97;;;;;;;3.46;100.00;94321.13;5078908;28;20024;-68
2022/11/22 02:31:44;;;;;;;5.72;5.38;;;;;;;3.48;100.00;94324.44;5088745;28;20547;-68
2022/11/22 02:34:10;;;;;;;4.20;3.80;;;;;;;3.50;100.00;94319.91;5084249;28;20087;-58
2022/11/22 02:36:44;;;;;;;4.88;4.53;;;;;;;3.49;100.00;94326.06;5082999;28;20081;-60
2022/11/22 02:39:13;;;;;;;3.50;3.20;;;;;;;3.44;100.00;94318.66;5088745;28;20028;-60
2022/11/22 02:41:39;;;;;;;4.82;4.53;;;;;;;3.46;100.00;94321.94;5089045;28;20022;-60
2022/11/22 02:44:06;;;;;;;6.03;4.80;;;;;;;3.46;100.00;94321.13;5083129;28;20115;-60
2022/11/22 02:46:31;;;;;;;4.25;3.85;;;;;;;3.46;100.00;94323.75;5083450;28;20028;-60
2022/11/22 02:48:57;;;;;;;6.65;3.75;;;;;;;3.43;100.00;94320.44;5085059;28;20025;-60
2022/11/22 02:51:23;;;;;;;6.07;3.90;;;;;;;3.43;100.00;94312.66;5088037;28;20072;-60
2022/11/22 02:53:49;;;;;;;3.20;2.78;;;;;;;3.54;100.00;94314.31;5090122;28;20023;-61
2022/11/22 02:56:16;;;;;;;3.38;2.13;;;;;;;3.55;100.00;94322.94;5080911;28;20115;-57
2022/11/22 02:58:42;;;;;;;2.63;2.42;;;;;;;3.41;100.00;94317.13;5082315;28;20438;-57
2022/11/22 03:01:07;;;;;;;1.92;1.83;;;;;;;3.36;100.00;94321.09;5086267;28;20098;-57
2022/11/22 03:03:33;;;;;;;2.20;2.10;;;;;;;3.30;100.00;94317.25;5087908;28;20108;-57
2022/11/22 03:05:58;;;;;;;4.22;2.55;;;;;;;3.28;100.00;94317.34;5091424;28;20050;-57
2022/11/22 03:08:23;;;;;;;3.17;2.53;;;;;;;3.30;100.00;94317.25;5080850;28;20023;-57
2022/11/22 03:10:49;;;;;;;2.50;2.40;;;;;;;3.27;100.00;94314.91;5084053;28;20492;-57
2022/11/22 03:13:14;;;;;;;2.63;2.42;;;;;;;3.20;100.00;94312.00;5092184;28;20059;-61
2022/11/22 03:15:40;;;;;;;2.80;2.60;;;;;;;3.17;100.00;94319.22;5092921;28;20080;-65
2022/11/22 03:18:05;;;;;;;2.60;2.50;;;;;;;3.13;100.00;94319.50;5089138;28;20020;-65
2022/11/22 03:20:32;;;;;;;2.70;2.20;;;;;;;3.13;100.00;94331.69;5090714;28;20031;-65
2022/11/22 03:22:59;;;;;;;2.20;2.10;;;;;;;3.10;100.00;94324.97;5071933;28;20512;-66
2022/11/22 03:25:25;;;;;;;2.20;2.10;;;;;;;3.07;100.00;94314.81;5088976;28;20029;-65
2022/11/22 03:27:50;;;;;;;2.10;2.00;;;;;;;3.02;100.00;94311.78;5089760;28;20075;-65
2022/11/22 03:30:15;;;;;;;2.28;2.03;;;;;;;2.99;100.00;94310.25;5083758;28;20422;-65
2022/11/22 03:32:41;;;;;;;2.08;1.88;;;;;;;3.01;100.00;94315.34;5091701;28;20115;-60
2022/11/22 03:35:07;;;;;;;1.70;1.60;;;;;;;2.98;100.00;94312.97;5089232;28;20028;-61
2022/11/22 03:37:32;;;;;;;2.35;2.17;;;;;;;2.96;100.00;94317.47;5081430;28;20100;-62
2022/11/22 03:39:57;;;;;;;2.28;1.90;;;;;;;2.97;100.00;94321.72;5081522;28;20023;-62
2022/11/22 03:42:23;;;;;;;2.08;1.90;;;;;;;3.01;100.00;94316.16;5095145;28;20028;-61
2022/11/22 03:44:48;;;;;;;2.35;1.98;;;;;;;3.02;100.00;94306.59;5087538;28;20028;-61
2022/11/22 03:47:14;;;;;;;1.80;1.70;;;;;;;3.04;100.00;94309.03;5085272;28;20024;-62
2022/11/22 03:49:39;;;;;;;1.80;1.70;;;;;;;2.98;100.00;94305.19;5087686;28;20039;-62
2022/11/22 03:52:04;;;;;;;1.90;1.80;;;;;;;2.97;100.00;94308.72;5089511;28;20031;-67
2022/11/22 03:54:30;;;;;;;2.03;1.92;;;;;;;2.96;100.00;94313.13;5086740;28;20031;-67
2022/11/22 03:56:55;;;;;;;2.60;2.38;;;;;;;2.92;100.00;94305.72;5074016;28;20413;-66
2022/11/22 03:59:20;;;;;;;2.20;2.10;;;;;;;2.90;100.00;94302.41;5083009;28;20020;-66
2022/11/22 04:01:46;;;;;;;2.58;1.88;;;;;;;2.91;100.00;94302.28;5090557;28;20030;-66
2022/11/22 04:04:11;;;;;;;4.60;2.15;;;;;;;2.91;100.00;94301.47;5088667;28;20035;-66
2022/11/22 04:06:37;;;;;;;2.50;2.25;;;;;;;2.92;100.00;94310.91;5088415;28;20020;-66
2022/11/22 04:09:03;;;;;;;2.88;2.05;;;;;;;2.90;100.00;94313.66;5080035;28;20025;-67
2022/11/22 04:11:28;;;;;;;2.55;2.35;;;;;;;2.85;100.00;94316.63;5090810;28;20032;-62
2022/11/22 04:16:38;;;;;;;4.85;2.10;;;;;;;2.84;100.00;94314.97;5079973;28;20031;-61
2022/11/22 04:19:03;;;;;;;2.78;2.22;;;;;;;2.81;100.00;94324.81;5083553;28;20020;-61
2022/11/22 04:21:34;;;;;;;3.85;2.50;;;;;;;2.79;100.00;94319.75;5084955;28;20051;-60
2022/11/22 04:26:53;;;;;;;4.50;3.00;;;;;;;2.82;100.00;94321.25;5088443;28;20125;-61
2022/11/22 04:29:19;;;;;;;3.45;3.08;;;;;;;2.82;100.00;94327.28;5082688;28;20027;-69
2022/11/22 04:34:29;;;;;;;8.48;3.53;;;;;;;2.90;100.00;94336.22;5086022;28;20097;-67
2022/11/22 04:36:54;;;;;;;5.13;3.58;;;;;;;2.83;100.00;94334.13;5091505;28;20455;-66
2022/11/22 04:39:20;;;;;;;4.05;3.53;;;;;;;2.81;100.00;94336.03;5085036;28;20020;-66
2022/11/22 04:41:46;;;;;;;8.93;4.25;;;;;;;3.03;100.00;94333.41;5087002;28;20515;-67
2022/11/22 04:46:55;;;;;;;4.10;3.33;;;;;;;2.77;100.00;94336.41;5086758;28;20063;-66
2022/11/22 04:49:21;;;;;;;4.28;3.35;;;;;;;2.70;100.00;94334.31;5087224;28;20051;-58
2022/11/22 04:54:30;;;;;;;5.68;4.18;;;;;;;2.65;100.00;94327.84;5088593;28;20095;-60
2022/11/22 04:56:55;;;;;;;7.03;4.28;;;;;;;2.64;100.00;94329.63;5087772;28;20483;-60
2022/11/22 04:59:21;;;;;;;11.00;7.03;;;;;;;2.63;100.00;94332.34;5062495;28;20036;-60
2022/11/22 05:01:46;;;;;;;6.70;5.53;;;;;;;2.57;100.00;94338.88;5092457;28;20024;-61
2022/11/22 05:04:11;;;;;;;9.60;7.18;;;;;;;2.53;100.00;94334.88;5088174;28;20107;-61
2022/11/22 05:06:37;;;;;;;11.27;7.40;;;;;;;2.52;100.00;94344.44;5088052;28;20103;-61
2022/11/22 05:09:02;;;;;;;6.18;5.28;;;;;;;2.48;100.00;94345.66;5079026;28;20477;-60
2022/11/22 05:11:28;;;;;;;9.52;6.00;;;;;;;2.45;100.00;94358.09;5087335;28;20028;-60
2022/11/22 05:13:53;;;;;;;9.57;6.18;;;;;;;2.42;100.00;94356.56;5088218;28;20405;-60
2022/11/22 05:16:18;;;;;;;11.25;6.13;;;;;;;2.41;100.00;94370.50;5086221;28;20119;-60
2022/11/22 05:18:57;;;;;;;9.68;5.75;;;;;;;2.38;100.00;94368.16;5089802;28;20043;-60
2022/11/22 05:21:24;;;;;;;8.52;6.22;;;;;;;2.35;100.00;94390.00;5092201;28;20023;-60
2022/11/22 05:23:53;;;;;;;6.97;5.13;;;;;;;2.38;100.00;94392.34;5080204;28;20096;-60
2022/11/22 05:26:23;;;;;;;11.07;5.72;;;;;;;2.40;100.00;94400.81;5083413;28;20032;-60
2022/11/22 05:28:48;;;;;;;10.73;5.00;;;;;;;2.43;100.00;94400.59;5086396;28;20031;-66
2022/11/22 05:31:16;;;;;;;11.25;5.63;;;;;;;2.46;100.00;94409.91;5086217;28;20458;-61
2022/11/22 05:33:43;;;;;;;13.23;7.35;;;;;;;2.48;100.00;94413.19;5084253;28;20045;-60
2022/11/22 05:36:09;;;;;;;9.48;5.78;;;;;;;2.49;100.00;94414.03;5087993;28;20028;-60
2022/11/22 05:38:36;;;;;;;11.25;6.57;;;;;;;2.48;100.00;94402.00;5083927;28;20020;-61
2022/11/22 05:41:04;;;;;;;10.13;5.97;;;;;;;2.47;100.00;94398.56;5092036;28;20031;-60
2022/11/22 05:43:30;;;;;;;8.65;5.40;;;;;;;2.39;100.00;94408.75;5089338;28;20498;-61
2022/11/22 05:45:55;;;;;;;9.27;5.75;;;;;;;2.31;100.00;94422.34;5082972;28;20035;-62
2022/11/22 05:48:21;;;;;;;14.93;6.53;;;;;;;2.29;100.00;94419.88;5085469;28;20493;-58
2022/11/22 05:50:46;;;;;;;13.57;8.63;;;;;;;2.27;100.00;94410.56;5084987;28;20035;-62
2022/11/22 05:53:12;;;;;;;14.15;7.30;;;;;;;2.32;100.00;94415.38;5089199;28;20028;-62
2022/11/22 05:55:37;;;;;;;19.75;7.50;;;;;;;2.30;100.00;94415.50;5088634;28;20669;-62
2022/11/22 05:58:02;;;;;;;11.20;6.45;;;;;;;2.22;100.00;94421.31;5083885;28;20024;-62
2022/11/22 06:00:28;;;;;;;11.93;6.65;;;;;;;2.19;100.00;94418.13;5085342;28;20800;-62
2022/11/22 06:03:00;;;;;;;7.50;4.35;;;;;;;2.17;100.00;94412.22;5086567;28;20039;-62
2022/11/22 06:05:26;;;;;;;8.55;4.47;;;;;;;2.23;100.00;94411.75;5089652;28;20027;-66
2022/11/22 06:07:51;;;;;;;10.65;5.22;;;;;;;2.18;100.00;94401.75;5085784;28;20057;-56
2022/11/22 06:10:17;;;;;;;13.75;5.30;;;;;;;2.15;100.00;94412.38;5092158;28;20031;-60
2022/11/22 06:12:42;;;;;;;12.18;5.15;;;;;;;2.08;100.00;94406.00;5092735;28;20453;-61
2022/11/22 06:15:08;;;;;;;11.07;5.65;;;;;;;2.02;100.00;94406.50;5082771;28;20032;-60
2022/11/22 06:17:33;;;;;;;10.18;5.68;;;;;;;2.00;100.00;94410.03;5089568;28;20027;-60
2022/11/22 06:19:58;;;;;;;13.35;6.07;;;;;;;1.99;100.00;94418.75;5079453;28;20039;-60
2022/11/22 06:22:24;;;;;;;11.00;6.20;;;;;;;2.00;100.00;94411.81;5088448;28;20028;-60
2022/11/22 06:24:49;;;;;;;10.00;6.10;;;;;;;1.99;100.00;94403.19;5083021;28;20020;-66
2022/11/22 06:27:14;;;;;;;10.20;5.97;;;;;;;1.95;100.00;94409.56;5080759;28;20028;-58
2022/11/22 06:29:41;;;;;;;9.68;5.32;;;;;;;1.94;100.00;94414.88;5086007;28;20112;-60
2022/11/22 06:32:06;;;;;;;10.57;5.25;;;;;;;1.90;100.00;94416.06;5077513;28;20044;-60
2022/11/22 06:34:32;;;;;;;10.43;5.03;;;;;;;1.87;100.00;94419.72;5078676;28;20425;-60
2022/11/22 06:36:57;;;;;;;10.15;4.55;;;;;;;1.83;100.00;94419.16;5088536;28;20032;-60
2022/11/22 06:39:22;;;;;;;9.90;4.57;;;;;;;1.82;100.00;94416.66;5084938;28;20023;-60
2022/11/22 06:41:48;;;;;;;10.90;4.95;;;;;;;1.83;100.00;94415.72;5084370;28;20034;-59
2022/11/22 06:44:13;;;;;;;4.97;4.00;;;;;;;1.80;100.00;94413.38;5075373;28;20071;-60
2022/11/22 06:46:38;;;;;;;7.57;4.03;;;;;;;1.76;100.00;94412.78;5078383;28;20024;-60
2022/11/22 06:49:04;;;;;;;5.95;3.72;;;;;;;1.76;100.00;94406.78;5084626;28;20582;-60
2022/11/22 06:51:31;;;;;;;7.60;3.83;;;;;;;1.78;100.00;94412.66;5082132;28;20051;-60
2022/11/22 06:53:57;;;;;;;8.75;4.28;;;;;;;1.84;100.00;94422.56;5087583;28;20032;-60
2022/11/22 06:56:27;;;;;;;9.40;4.10;;;;;;;1.86;100.00;94424.09;5083616;28;20028;-60
2022/11/22 06:58:53;;;;;;;13.32;6.03;;;;;;;1.91;100.00;94426.34;5074110;28;20570;-60
2022/11/22 07:01:23;;;;;;;11.30;6.50;;;;;;;1.92;100.00;94433.19;5085656;28;20051;-61
2022/11/22 07:03:49;;;;;;;20.58;15.30;;;;;;;1.96;100.00;94432.00;5083124;28;20497;-66
2022/11/22 07:06:16;;;;;;;14.88;9.63;;;;;;;1.92;100.00;94437.53;5082025;28;20063;-60
2022/11/22 07:08:43;;;;;;;24.98;16.33;;;;;;;1.87;100.00;94435.28;5084525;28;20028;-60
2022/11/22 07:11:17;;;;;;;21.02;15.60;;;;;;;1.86;100.00;94446.63;5085238;28;20043;-59
2022/11/22 07:13:43;;;;;;;22.25;15.77;;;;;;;1.87;100.00;94445.66;5085752;28;20106;-60
2022/11/22 07:16:11;;;;;;;18.92;12.98;;;;;;;1.99;100.00;94449.09;5077134;28;20487;-59
2022/11/22 07:18:36;;;;;;;27.38;17.02;;;;;;;2.12;100.00;94444.59;5088548;28;20024;-59
2022/11/22 07:21:05;;;;;;;33.60;24.40;;;;;;;2.12;100.00;94454.97;5083362;28;20401;-59
2022/11/22 07:23:30;;;;;;;51.40;37.42;;;;;;;2.14;100.00;94460.88;5081896;28;20032;-60
2022/11/22 07:25:56;;;;;;;31.67;18.55;;;;;;;2.19;100.00;94462.28;5084573;28;20051;-65
2022/11/22 07:28:21;;;;;;;19.17;12.48;;;;;;;2.29;100.00;94471.00;5085941;28;20083;-65
2022/11/22 07:30:47;;;;;;;24.08;18.45;;;;;;;2.32;100.00;94477.72;5089893;28;20076;-67
2022/11/22 07:33:12;;;;;;;30.77;21.20;;;;;;;2.38;100.00;94479.84;5082552;28;20048;-65
2022/11/22 07:35:38;;;;;;;29.38;19.00;;;;;;;2.40;100.00;94475.34;5069252;28;20083;-66
2022/11/22 07:38:03;;;;;;;29.58;17.27;;;;;;;2.42;100.00;94482.06;5073950;28;20052;-66
2022/11/22 07:40:29;;;;;;;22.35;14.82;;;;;;;2.45;100.00;94481.00;5082674;28;20012;-66
2022/11/22 07:42:54;;;;;;;25.90;16.35;;;;;;;2.53;100.00;94488.19;5089287;28;20027;-61
2022/11/22 07:45:20;;;;;;;22.33;14.40;;;;;;;2.58;100.00;94494.69;5081367;28;20036;-59
2022/11/22 07:47:45;;;;;;;27.45;24.42;;;;;;;2.63;100.00;94494.28;5067805;28;20553;-59
2022/11/22 07:50:11;;;;;;;30.83;27.60;;;;;;;2.67;100.00;94482.72;5088814;28;20077;-60
2022/11/22 07:52:37;;;;;;;34.88;27.00;;;;;;;2.72;100.00;94490.97;5082331;28;20029;-59
2022/11/22 07:55:05;;;;;;;37.85;28.92;;;;;;;2.77;100.00;94490.59;5085017;28;20493;-60
2022/11/22 07:57:30;;;;;;;39.03;29.58;;;;;;;2.80;100.00;94498.16;5080662;28;20032;-60
2022/11/22 07:59:55;;;;;;;43.15;31.65;;;;;;;2.88;100.00;94502.75;5086178;28;20901;-59
2022/11/22 08:02:21;;;;;;;40.20;34.30;;;;;;;2.92;100.00;94498.09;5082345;28;20085;-66
2022/11/22 08:04:46;;;;;;;24.73;19.00;;;;;;;2.97;100.00;94507.19;5089764;28;20020;-60
2022/11/22 08:07:11;;;;;;;25.15;19.70;;;;;;;3.01;100.00;94505.16;5084694;28;20058;-61
2022/11/22 08:09:37;;;;;;;54.10;34.83;;;;;;;3.06;100.00;94507.38;5073275;28;20015;-61
2022/11/22 08:12:02;;;;;;;27.50;18.35;;;;;;;3.12;100.00;94510.31;5086729;28;20473;-60
2022/11/22 08:14:28;;;;;;;20.60;15.20;;;;;;;3.16;100.00;94521.28;5089080;28;20115;-61
2022/11/22 08:16:54;;;;;;;18.00;12.80;;;;;;;3.20;100.00;94512.28;5090059;28;20047;-61
2022/11/22 08:19:20;;;;;;;20.65;13.38;;;;;;;3.26;100.00;94516.16;5083061;28;20118;-61
2022/11/22 08:21:47;;;;;;;18.30;13.90;;;;;;;3.32;100.00;94518.25;5085981;28;20095;-68
2022/11/22 08:24:13;;;;;;;17.15;14.77;;;;;;;3.38;100.00;94533.34;5084651;28;20029;-68
2022/11/22 08:26:38;;;;;;;26.35;17.65;;;;;;;3.53;100.00;94533.84;5087023;28;20025;-68
2022/11/22 08:29:05;;;;;;;30.52;22.98;;;;;;;3.65;100.00;94544.22;5086354;28;20033;-68
2022/11/22 08:31:30;;;;;;;25.48;17.02;;;;;;;3.95;100.00;94548.63;5067948;28;20417;-68
2022/11/22 08:33:56;;;;;;;16.52;10.43;;;;;;;3.88;100.00;94552.72;5089578;28;20045;-68
2022/11/22 08:36:22;;;;;;;19.85;9.30;;;;;;;3.66;100.00;94559.72;5092124;28;20028;-67
2022/11/22 08:38:47;;;;;;;14.90;9.02;;;;;;;3.56;100.00;94564.03;5084876;28;20015;-68
2022/11/22 08:41:13;;;;;;;12.13;10.68;;;;;;;3.64;100.00;94579.00;5069450;28;20035;-60
2022/11/22 08:43:38;;;;;;;15.13;12.30;;;;;;;3.93;100.00;94579.19;5086529;28;20107;-59
2022/11/22 08:46:04;;;;;;;16.25;11.27;;;;;;;3.89;100.00;94588.22;5081248;28;20024;-58
2022/11/22 08:48:33;;;;;;;13.77;12.27;;;;;;;3.98;100.00;94587.44;5093900;28;20098;-57
2022/11/22 08:51:01;;;;;;;15.13;13.65;;;;;;;3.84;100.00;94604.22;5079154;28;20046;-58
2022/11/22 08:53:28;;;;;;;15.48;12.30;;;;;;;3.80;100.00;94608.03;5089514;28;20068;-57
2022/11/22 08:55:54;;;;;;;15.32;13.80;;;;;;;3.82;100.00;94607.88;5087510;28;20032;-59
2022/11/22 08:58:20;;;;;;;14.70;13.20;;;;;;;3.88;100.00;94607.41;5081212;28;20490;-58
2022/11/22 09:00:46;;;;;;;12.70;11.48;;;;;;;3.93;100.00;94609.59;5089330;28;20023;-58
2022/11/22 09:03:11;;;;;;;12.32;10.93;;;;;;;3.95;100.00;94621.56;5080726;28;20057;-58
2022/11/22 09:05:37;;;;;;;12.75;11.48;;;;;;;4.06;100.00;94627.63;5088729;28;20394;-58
2022/11/22 09:08:02;;;;;;;14.23;11.52;;;;;;;4.17;100.00;94638.00;5085722;28;20020;-58
2022/11/22 09:10:28;;;;;;;18.08;14.50;;;;;;;4.14;100.00;94635.66;5086377;28;20028;-58
2022/11/22 09:12:53;;;;;;;16.80;13.15;;;;;;;4.11;100.00;94635.91;5082425;28;20020;-58
2022/11/22 09:15:18;;;;;;;19.90;14.50;;;;;;;4.14;100.00;94636.47;5090834;28;20020;-59
2022/11/22 09:17:44;;;;;;;18.58;16.65;;;;;;;4.30;100.00;94630.78;5087478;28;20035;-58
2022/11/22 09:20:10;;;;;;;16.70;14.20;;;;;;;4.30;100.00;94640.41;5088065;28;20056;-66
2022/11/22 09:22:36;;;;;;;15.73;12.60;;;;;;;4.28;100.00;94647.53;5090399;28;20020;-57
2022/11/22 09:25:02;;;;;;;13.57;11.93;;;;;;;4.25;100.00;94643.38;5089831;28;20047;-58
2022/11/22 09:27:27;;;;;;;17.15;14.65;;;;;;;4.27;100.00;94651.06;5084976;28;20029;-56
2022/11/22 09:29:53;;;;;;;15.55;13.07;;;;;;;4.37;100.00;94648.53;5086176;28;20546;-56
2022/11/22 09:32:18;;;;;;;19.10;13.35;;;;;;;4.33;100.00;94639.31;5069414;28;20058;-57
2022/11/22 09:34:43;;;;;;;22.02;14.95;;;;;;;4.36;100.00;94639.88;5091465;28;20027;-58
2022/11/22 09:37:09;;;;;;;18.48;15.82;;;;;;;4.46;100.00;94628.69;5083777;28;20485;-58
2022/11/22 09:39:34;;;;;;;17.60;13.68;;;;;;;4.55;100.00;94623.50;5080504;28;20024;-66
2022/11/22 09:42:21;;;;;;;17.83;12.63;;;;;;;4.65;100.00;94625.31;5084828;28;20115;-60
2022/11/22 09:45:20;;;;;;;11.27;9.55;;;;;;;4.79;100.00;94624.97;5081548;28;20028;-59
2022/11/22 09:47:58;;;;;;;15.82;9.00;;;;;;;5.15;100.00;94638.34;5089995;28;20417;-59
2022/11/22 09:51:00;;;;;;;12.20;9.07;;;;;;;5.40;100.00;94633.56;5080520;28;20059;-60
2022/11/22 09:53:31;;;;;;;17.13;10.48;;;;;;;5.52;100.00;94636.88;5069105;28;20031;-60
2022/11/22 09:56:02;;;;;;;11.13;8.50;;;;;;;5.44;100.00;94634.97;5085664;28;20073;-59
2022/11/22 09:58:39;;;;;;;10.55;8.15;;;;;;;5.38;100.00;94645.94;5076486;28;20028;-66
2022/11/22 10:01:16;;;;;;;11.07;7.97;;;;;;;5.30;100.00;94648.41;5082531;28;20020;-61
2022/11/22 10:03:51;;;;;;;9.95;7.80;;;;;;;5.22;100.00;94641.25;5083866;28;20028;-67
2022/11/22 10:06:23;;;;;;;9.20;5.05;;;;;;;5.20;100.00;94651.00;5082654;28;20036;-68
2022/11/22 10:09:06;;;;;;;7.07;4.90;;;;;;;5.28;100.00;94640.72;5088199;28;20094;-68
2022/11/22 10:11:47;;;;;;;8.60;5.13;;;;;;;5.30;100.00;94646.66;5080499;28;20077;-68
2022/11/22 10:14:47;;;;;;;6.25;5.15;;;;;;;5.41;100.00;94640.44;5079818;28;20020;-68
2022/11/22 10:17:40;;;;;;;9.60;4.45;;;;;;;5.51;100.00;94635.22;5081766;28;20027;-60
2022/11/22 10:20:06;;;;;;;12.73;4.55;;;;;;;5.65;100.00;94639.25;5088249;28;20031;-60
2022/11/22 10:22:32;;;;;;;12.38;8.70;;;;;;;5.80;100.00;94630.97;5086389;28;20016;-58
2022/11/22 10:24:59;;;;;;;13.90;8.68;;;;;;;5.98;100.00;94626.69;5078098;28;20077;-57
2022/11/22 10:27:31;;;;;;;12.73;8.50;;;;;;;6.09;100.00;94619.72;5087557;28;20025;-59
2022/11/22 10:30:14;;;;;;;7.43;6.07;;;;;;;6.21;100.00;94615.16;5072418;28;20024;-58
2022/11/22 10:32:59;;;;;;;10.45;6.28;;;;;;;6.41;100.00;94608.06;5088223;28;20418;-59
2022/11/22 10:35:40;;;;;;;9.50;5.80;;;;;;;6.59;100.00;94600.28;5089364;28;20031;-58
2022/11/22 10:38:21;;;;;;;7.82;4.57;;;;;;;6.83;100.00;94589.28;5074829;28;20078;-61
2022/11/22 10:41:17;;;;;;;6.10;4.15;;;;;;;6.86;100.00;94586.38;5084694;28;20625;-61
2022/11/22 10:43:49;;;;;;;;;;;;;;;6.91;100.00;94596.41;5084815;28;20393;-61
2022/11/22 10:46:37;;;;;;;7.55;3.75;;;;;;;6.79;98.40;94582.72;5081997;28;19930;-61
2022/11/22 10:49:18;;;;;;;5.30;3.03;;;;;;;6.62;98.20;94576.44;5091084;28;20085;-61
2022/11/22 10:52:02;;;;;;;3.92;3.08;;;;;;;6.57;98.22;94563.81;5080388;28;20020;-61
2022/11/22 10:54:41;;;;;;;7.65;3.17;;;;;;;6.36;95.20;94553.59;5084028;28;20029;-61
2022/11/22 10:57:31;;;;;;;8.05;3.88;;;;;;;6.29;94.69;94561.16;5082182;28;20505;-67
2022/11/22 11:00:35;;;;;;;6.95;3.72;;;;;;;6.39;96.29;94566.34;5081980;28;20024;-63
2022/11/22 11:03:25;;;;;;;4.00;3.03;;;;;;;6.61;96.10;94568.75;5040973;28;20055;-63
2022/11/22 11:06:06;;;;;;;4.13;2.30;;;;;;;6.64;94.72;94558.00;5082232;28;20076;-63
2022/11/22 11:08:54;;;;;;;6.93;2.97;;;;;;;6.58;93.38;94546.31;5087656;28;20026;-63
2022/11/22 11:11:23;;;;;;;7.13;2.90;;;;;;;6.75;96.32;94555.22;5073823;28;20822;-63
2022/11/22 11:13:57;;;;;;;5.88;2.22;;;;;;;7.06;95.01;94548.78;5081182;28;20023;-63
2022/11/22 11:16:29;;;;;;;2.00;1.80;;;;;;;7.22;94.37;94541.09;5083809;28;20441;-58
2022/11/22 11:19:00;;;;;;;2.47;2.20;;;;;;;7.24;93.09;94546.22;5085518;28;20016;-61
2022/11/22 11:21:26;;;;;;;4.10;2.22;;;;;;;7.25;93.64;94535.56;5082320;28;20024;-61
2022/11/22 11:23:51;;;;;;;4.55;2.08;;;;;;;7.13;91.07;94544.63;5082878;28;20043;-61
2022/11/22 11:26:27;;;;;;;2.45;2.25;;;;;;;7.11;93.67;94541.34;5088367;28;20024;-61
2022/11/22 11:29:14;;;;;;;2.35;2.17;;;;;;;7.06;92.43;94541.78;5084264;28;20069;-61
2022/11/22 11:31:46;;;;;;;5.15;2.88;;;;;;;7.17;93.86;94538.13;5086444;28;20035;-61
2022/11/22 11:34:19;;;;;;;3.67;2.85;;;;;;;7.02;93.94;94543.88;5085231;28;20123;-62
2022/11/22 11:36:45;;;;;;;5.80;2.60;;;;;;;6.90;95.18;94537.22;5093471;28;20047;-60
2022/11/22 11:39:21;;;;;;;3.45;2.40;;;;;;;6.78;97.93;94549.69;5089120;28;20095;-63
2022/11/22 11:41:46;;;;;;;3.13;2.45;;;;;;;6.69;94.96;94554.00;5089053;28;20633;-63
2022/11/22 11:44:35;;;;;;;5.70;5.07;;;;;;;6.63;97.58;94559.81;5085782;28;20157;-63
2022/11/22 11:47:02;;;;;;;2.10;2.00;;;;;;;6.67;95.65;94561.16;5089769;28;20024;-63